Timeline UpdatesTrip UpdatesNews PostsPvt Posts♥♥Travel TipsAdmin PostsConv PostsFollowed PostsChat RequestsBlog PostsPNR Posts

Disclaimer
Search
 
 
Mon Oct 20, 2014 09:54:59 ISTHomeTrainsΣChainsAtlasPNRForumGalleryNewsFAQTripsMembersLoginFeedback
No Recent News for this Train
Other Trains in the News **new
Latest...
.
Tue Nov 19, 2013 (11:57PM)
⇐ Return Journey: Train# 56323

56324/Mangalore - Coimbatore Fast Passenger (UnReserved)

Time-Table HAS CHANGED.
Sep 03 2014 (10:03AM)
Change Departure Station:
Change Arrival Station:
Post a Train Travel TipPost a Train Travel Tip **new
Post a Comment/Question/Picture/VideoPost a Comment/Question/Picture/Video
Pantry/Catering
???
RSA - Rake Sharing
RSA; with 56319/56320 Nagercoil Coimbatore Fast Passenger; Srivatsa Udupa
Rake/Coach Composition
LOCO=SLR=UR=UR=UR=UR=UR=UR=UR=UR=UR=UR=UR=UR=UR=UR=SLR
Loco
ED WDM 3D/3A or TNP/GOC WDM2
News    PNR    Forum    Time-Table    Availability    Fare Chart    Map    Arr/Dep History    Trips    Gallery    ΣChains    X/O    Timeline    
Travel Time: 9h 57m    40 halts    Distance: 315 km    Avg Speed: 31 km/hr
Type: Passenger
Zone: SR/Southern
Departs @ 09:38
Platform# ???
SMTWTFS
Trikkarippur/TKQ 
Arrives @ 19:35 (Avg 3m late)
Platform# ???
SMTWTFS
Coimbatore Main Junction/CBE 

40 halts. 57 intermediate Stations between Trikkarippur and Coimbatore Main Junction

Show ALL intermediate Stations  Show Old Time-Table

#TrkCodeStation NameX/OArrivesAvgDepartsAvgHaltPFDay#KmSpeedElevZoneAddress
1%==%MAQMangalore Central (4)  -08:00 07:40+331-91.92314mSRMangalore 575001, Karnataka
2%==%ULLUllal (2)  08:19 07:57+708:20 07:58+71m--1-85.47726mSRSomeshwar, Karnataka
3%==%MJSManjeshwar (3)  08:28 08:06+908:29 08:07+91m--1-75.15912mSRManjeshwar, Kerala
4%==%UAAUppala (2)X  08:36 08:14+1108:37 08:15+111m--1-68.25916mSRKasaragod District, Kerala
5%==%KMQKumbala (2)X  08:47 08:25+1308:48 08:26+131m--1-58.47323mSRKumbla, Kerala
6%==%KGQKasaragod (3)X  08:58 08:36+1109:00 08:38+112m--1-46.22518mSRTel: 04994 220800, Kerala
7%==%KLADKalanad Halt  09:06 08:45-09:07 08:46-1m--1-43.3663mSRKasaragod, Kerala
8%==%KQKKottikkulam (2)X  09:13 08:52+1309:14 08:53+131m--1-36.74225mSRBekal, Kerala
9%==%BFRBekal Fort (2)  09:21 09:00-09:22 09:01-1m--1-31.910511mSRPallikere, Kerala
10%==%KZEKanhangad (3)X  09:29 09:06+1209:31 09:08+122m--1-23.15115mSRKanhangad, Kerala
11%==%NLENileshwar (2)  09:42 09:19+1709:43 09:20+181m--1-13.84012mSRNileswaram, Kerala
12%==%CHVCharvattur (3)  09:51 09:28+1809:52 09:29+181m--1-8.66414mSRKasaragod district, Kerala
13%==%TKQTrikkarippur»  10:00 09:37-10:01 09:38-1m--10.05313mSRKasargod district, Kerala
14%==%PAYPayyanur (3)  10:08 09:45+1510:09 09:47+151 2m--16.2210mSRKannur District, Kerala
15%==%ELMEzhimala  10:17 09:55-10:18 09:56-1m--19.07615mSRKannur District, Kerala
16%==%PAZPayangadi (2)X  10:25 10:03+1610:26 10:04+171m2117.95012mSRKannur District, Kerala
17%==%KPQKannapuram (2)  10:35 10:13+1710:36 10:14+171m2125.41209mSRKannur District, Kerala
18%==%PPNSPappinisseri (2)  10:39 10:17+910:40 10:18+91m--131.4198mSRKannur District, Kerala
19%==%VAPMValapattanam (2)  10:45 10:23+1510:46 10:24+151m--132.9258mSRKannur District, Kerala
20%==%CQLChirakkal (2)X  10:51 10:29-10:52 10:30-1m--135.0827mSRKannur district, Kerala
21%==%CANKannur Main (4)  11:20 11:05+111:25 11:10+25m3139.87314mSRKannur Tel: 0497 2705555, Kerala
22%==%TLYThalassery (2)  11:45 11:27+311:46 11:29+31 2m--160.5699mSRKannur, Kerala
23%==%MAHEMahe (2)X  11:57 11:37+611:58 11:39+61 2m--169.82816mSRMahe, Puducherry
24%==%MUKEMukkali  12:03 11:47-12:04 11:48-1m--173.54418mSRChombala, Kerala
25%==%NAUNadapuram Road  12:09 11:53-12:10 11:54-1m--177.210918mSRMadappallly, Kerala
26%==%BDJVadakara (2)  12:15 11:57+312:16 11:59+41 2m1182.68311mSRCalicut / Station Ph No : 0496-2524254, Kerala
27%==%PYOLPayyoli (2)  12:22 12:06-12:23 12:07-1m--192.35212mSRPayyoli, Kerala
28%==%QLDKoyilandy (3)  12:38 12:21+612:39 12:22+81m--1104.63811mSRQuilandi, Kerala
29%==%CLTKozhikode Main (4)X  13:15 13:00+113:20 13:05+35m31128.92211mSRCalicut Tel: 0495 2701234, Kerala
30%==%KULKallayi Kozhikode South (2)X  13:25 13:10+713:26 13:11+91m--1130.7490mSRCalicut, Kerala
31%==%FKFerok (2)  13:34 13:21+613:35 13:22+81m--1138.94019mSRFeroke, Kerala
32%==%KNKadalundi (2)  13:40 13:29+1513:41 13:30+161m--1143.6668mSRKozhikode district, Kerala
33%==%VLIVallikunnu (2)  13:45 13:35+413:46 13:36+41m--1149.13713mSRVallikkunnu, Kerala
34%==%PGIParappangadi (2)  13:54 13:44+1313:55 13:45+181m--1154.05419mSRParappanangadi, Kerala
35%==%TATanur (3)XO  14:04 13:54+2414:05 13:55+271m--1162.11511mSRMalappuram, Kerala
36%==%TIRTirur (3)X  14:18 14:28+814:20 14:30+102m31170.1579mSRTel: 0494 2422240, Kerala
37%==%TUATirunnavaya (2)X  14:29 14:39+1314:30 14:40+131m--1178.74810mSRThirunavaya, Kerala
38%==%KTUKuttippuram (2)  14:39 14:48+1014:40 14:50+141 2m--1185.26217mSRKuttippuram, Kerala
39%==%PUMPallippuram  14:49 14:59+2514:50 15:00+281m--1194.5615mSRPalakkad, Kerala
40%==%PTBPattambi (2)XO  14:59 15:09+2915:00 15:10+301m--1203.71321mSRPattambi, Kerala
41%==%SRRShoranur Junction (7)X  16:00 16:05+316:15+815 10m51215.22926mSRShoranur ph.no 0466-2222913, Kerala
42/==/MNURMannanur (2)  16:27+1016:28+101m--1221.05333mSRVaniamkulam Mannanur Rd, Kerala
43/==/OTPOttappalam (2)  16:37 16:36+716:38+71 2m--1228.13530mSROttapalam, Kerala
44/==/PLPMPalappuram  16:44-16:45-1m--1231.64042mSRKayarampara-Meetna Rd, Kerala
45/==/LDYLakkidi (2)X  16:51+916:52+111m--1235.65835mSRPalakkad, Kerala
46/==/MNYMankara (2)  17:00+1117:01+111m--1243.45665mSRPalakkad, Kerala
47/==/PLLParli (2)  17:09+1117:10+111m--1250.82263mSRPalakkad, Kerala
48/==/PGTPalakkad Junction (4)XO  17:35+418:00+525m31259.84784mSRPalghat Tel: 0491 2555231, Kerala
49/==/KJKDKanjikode (2)X  18:17+518:18+61m--1273.0460mSRPalakkad, Kerala
50/==/WRAWalayarX  18:34+718:35+71m--1285.433213mSRPalakkad, Kerala
51/==/ETMDEttimadai (2)  18:51+518:52+51m--1294.145313mSREttimadai, Tamil Nadu
52/==/MDKIMadukaraiX  18:59+619:00+61m--1299.433344mSRCoimbatore, Tamil Nadu
53/==/PTJPodanur Junction (4)  19:18+319:20+32m11309.223400mSRPodanur jtn ph.no. 0422-2410784, Tamil Nadu
54/==/CBECoimbatore Main Junction (6)•  19:35+3---1315.1-416mSRCoimbatore 641001, Tamil Nadu
Scroll to Top
Scroll to Bottom